Time;durP1;ratioP1;P1;durP2;ratioP2;P2;SDS_P1;SDS_P2;PMS_P1;PMS_P2;Temp;Humidity;BMP_temperature;BMP_pressure;BME280_temperature;BME280_humidity;BME280_pressure;Samples;Min_cycle;Max_cycle;Signal;HPM_P1;HPM_P2
2022/09/14 00:01:35;;;;;;;1.42;1.30;;;18.00;99.90;;;;;;5036190;28;20388;-69
2022/09/14 00:04:04;;;;;;;2.00;1.60;;;18.00;99.90;;;;;;5035970;28;20488;-68
2022/09/14 00:06:31;;;;;;;1.30;1.20;;;18.00;99.90;;;;;;5036099;28;20022;-68
2022/09/14 00:09:00;;;;;;;1.40;1.30;;;18.00;99.90;;;;;;5035875;28;20558;-68
2022/09/14 00:11:28;;;;;;;1.45;1.20;;;18.10;99.90;;;;;;5035914;28;20025;-69
2022/09/14 00:13:56;;;;;;;1.80;1.52;;;18.10;99.90;;;;;;5035892;28;20096;-68
2022/09/14 00:16:26;;;;;;;3.00;1.30;;;18.10;99.90;;;;;;5035851;28;20495;-69
2022/09/14 00:18:54;;;;;;;1.90;1.48;;;18.10;99.90;;;;;;5035826;28;20018;-68
2022/09/14 00:21:21;;;;;;;0.98;0.90;;;18.20;99.90;;;;;;5035529;28;20087;-69
2022/09/14 00:23:47;;;;;;;1.77;1.38;;;18.10;99.90;;;;;;5035421;28;20036;-68
2022/09/14 00:26:16;;;;;;;2.13;1.00;;;18.10;99.90;;;;;;5035628;28;20018;-68
2022/09/14 00:28:45;;;;;;;1.20;0.93;;;18.10;99.90;;;;;;5017906;28;20028;-69
2022/09/14 00:31:11;;;;;;;2.15;1.15;;;18.10;99.90;;;;;;5035489;28;20025;-68
2022/09/14 00:33:38;;;;;;;1.40;1.10;;;18.20;99.90;;;;;;5035598;28;20071;-69
2022/09/14 00:36:26;;;;;;;2.03;1.20;;;18.20;99.90;;;;;;5035529;28;20503;-69
2022/09/14 00:38:55;;;;;;;1.13;1.00;;;18.20;99.90;;;;;;5035325;28;20358;-69
2022/09/14 00:41:27;;;;;;;1.23;1.02;;;18.10;99.90;;;;;;5035235;28;20061;-69
2022/09/14 00:44:04;;;;;;;1.48;1.23;;;18.10;99.90;;;;;;5035228;28;20071;-68
2022/09/14 00:46:37;;;;;;;1.25;1.00;;;18.00;99.90;;;;;;5035271;28;20381;-68
2022/09/14 00:49:09;;;;;;;0.85;0.80;;;18.00;99.90;;;;;;5035163;28;20035;-69
2022/09/14 00:51:38;;;;;;;1.73;0.95;;;18.00;99.90;;;;;;5035111;28;20100;-69
2022/09/14 00:54:06;;;;;;;1.77;0.98;;;18.00;99.90;;;;;;5035260;28;20022;-68
2022/09/14 00:56:32;;;;;;;1.10;1.00;;;18.00;99.90;;;;;;5034866;28;20046;-69
2022/09/14 00:59:05;;;;;;;1.15;0.82;;;18.00;99.90;;;;;;5017339;28;20109;-68
2022/09/14 01:01:31;;;;;;;1.13;1.00;;;17.90;99.90;;;;;;5034967;28;20427;-68
2022/09/14 01:03:56;;;;;;;1.77;1.15;;;17.90;99.90;;;;;;5034870;28;20034;-69
2022/09/14 01:06:38;;;;;;;0.93;0.82;;;17.80;99.90;;;;;;5034848;28;20028;-68
2022/09/14 01:09:28;;;;;;;1.20;0.80;;;17.80;99.90;;;;;;5034836;28;20124;-68
2022/09/14 01:12:23;;;;;;;0.77;0.73;;;17.80;99.90;;;;;;5034268;28;20044;-69
2022/09/14 01:14:57;;;;;;;0.93;0.82;;;17.80;99.90;;;;;;5034848;28;20105;-68
2022/09/14 01:17:33;;;;;;;0.90;0.88;;;17.80;99.90;;;;;;5034742;28;20049;-68
2022/09/14 01:20:21;;;;;;;0.88;0.77;;;17.80;99.90;;;;;;5016858;28;20057;-68
2022/09/14 01:23:12;;;;;;;1.35;0.90;;;17.80;99.90;;;;;;5034522;28;20384;-68
2022/09/14 01:25:56;;;;;;;1.27;1.10;;;17.80;99.90;;;;;;5034680;28;20024;-68
2022/09/14 01:28:31;;;;;;;1.17;1.00;;;17.90;99.90;;;;;;5034513;28;20060;-68
2022/09/14 01:31:02;;;;;;;1.25;1.15;;;17.80;99.90;;;;;;5034500;28;20029;-68
2022/09/14 01:33:36;;;;;;;1.45;1.10;;;17.80;99.90;;;;;;5034336;28;20029;-69
2022/09/14 01:36:06;;;;;;;1.60;1.33;;;17.80;99.90;;;;;;5034284;28;20021;-68
2022/09/14 01:38:46;;;;;;;1.35;1.15;;;17.70;99.90;;;;;;5034283;28;20033;-69
2022/09/14 01:41:16;;;;;;;3.10;1.38;;;17.60;99.90;;;;;;5034207;28;20547;-68
2022/09/14 01:43:56;;;;;;;1.70;1.25;;;17.60;99.90;;;;;;5034286;28;20491;-68
2022/09/14 01:46:30;;;;;;;2.70;1.92;;;17.60;99.90;;;;;;5034372;28;20029;-68
2022/09/14 01:49:02;;;;;;;;;;;17.50;99.90;;;;;;5034576;28;20022;-69
2022/09/14 01:51:41;;;;;;;1.95;0.98;;;17.40;99.90;;;;;;5033931;28;19970;-68
2022/09/14 01:54:35;;;;;;;1.38;1.27;;;17.40;99.90;;;;;;5034073;28;20018;-68
2022/09/14 01:57:11;;;;;;;;;;;17.50;99.90;;;;;;5026407;28;20041;-68
2022/09/14 01:59:42;;;;;;;1.05;0.95;;;17.50;99.90;;;;;;5033838;28;19959;-68
2022/09/14 02:03:07;;;;;;;1.02;1.00;;;17.50;99.90;;;;;;5033907;28;20444;-69
2022/09/14 02:05:56;;;;;;;1.17;0.90;;;17.50;99.90;;;;;;4953386;29;20031;-69
2022/09/14 02:08:26;;;;;;;1.92;1.15;;;17.40;99.90;;;;;;4953694;29;20032;-69
2022/09/14 02:10:52;;;;;;;1.92;1.48;;;17.40;99.90;;;;;;5005954;28;20048;-69
2022/09/14 02:13:18;;;;;;;1.35;1.20;;;17.30;99.90;;;;;;5033587;28;20021;-68
2022/09/14 02:15:44;;;;;;;1.35;1.00;;;17.20;99.90;;;;;;5033686;28;20440;-69
2022/09/14 02:18:10;;;;;;;1.20;1.10;;;17.30;99.90;;;;;;5033715;28;20052;-68
2022/09/14 02:20:42;;;;;;;0.88;0.80;;;17.30;99.90;;;;;;5033248;28;20057;-68
2022/09/14 02:23:08;;;;;;;1.23;1.00;;;17.40;99.90;;;;;;5033591;28;20097;-68
2022/09/14 02:25:35;;;;;;;1.10;1.00;;;17.30;99.90;;;;;;5033466;28;20109;-68
2022/09/14 02:28:01;;;;;;;2.88;1.00;;;17.30;99.90;;;;;;5033428;28;20026;-69
2022/09/14 02:30:33;;;;;;;1.55;1.27;;;17.30;99.90;;;;;;5033486;28;20021;-68
2022/09/14 02:33:11;;;;;;;1.83;1.13;;;17.30;99.90;;;;;;5033241;28;20022;-69
2022/09/14 02:35:48;;;;;;;1.23;0.93;;;17.20;99.90;;;;;;5033322;28;20038;-68
2022/09/14 02:39:00;;;;;;;1.02;0.93;;;17.10;99.90;;;;;;5033417;28;20022;-69
2022/09/14 02:41:54;;;;;;;2.35;1.10;;;17.20;99.90;;;;;;4953136;28;20027;-68
2022/09/14 02:44:25;;;;;;;;;;;17.20;99.90;;;;;;4953645;29;20485;-69
2022/09/14 02:46:51;;;;;;;1.15;1.05;;;17.10;99.90;;;;;;5013111;28;19912;-68
2022/09/14 02:49:51;;;;;;;2.22;1.00;;;17.10;99.90;;;;;;5032982;28;20026;-69
2022/09/14 02:52:39;;;;;;;2.17;0.95;;;17.10;99.90;;;;;;5033060;28;20026;-69
2022/09/14 02:55:11;;;;;;;0.85;0.85;;;17.10;99.90;;;;;;5032986;28;20431;-68
2022/09/14 02:58:05;;;;;;;2.00;0.90;;;17.10;99.90;;;;;;5032918;28;20053;-68
2022/09/14 03:00:35;;;;;;;1.70;0.90;;;17.10;99.90;;;;;;5033226;28;20113;-68
2022/09/14 03:03:02;;;;;;;1.20;1.08;;;17.10;99.90;;;;;;5032882;28;20041;-68
2022/09/14 03:05:28;;;;;;;0.80;0.80;;;17.10;99.90;;;;;;5033119;28;20021;-68
2022/09/14 03:07:54;;;;;;;2.50;1.17;;;17.10;99.90;;;;;;5033012;28;20491;-68
2022/09/14 03:10:20;;;;;;;0.90;0.90;;;17.10;99.90;;;;;;5033228;28;20384;-68
2022/09/14 03:12:45;;;;;;;1.05;0.90;;;17.10;99.90;;;;;;5033111;28;20030;-68
2022/09/14 03:15:11;;;;;;;0.80;0.70;;;17.00;99.90;;;;;;5033018;28;20017;-68
2022/09/14 03:17:37;;;;;;;0.93;0.70;;;17.00;99.90;;;;;;5032700;28;20018;-69
2022/09/14 03:20:03;;;;;;;1.38;1.08;;;16.90;99.90;;;;;;5032940;28;20041;-68
2022/09/14 03:22:29;;;;;;;1.65;1.00;;;17.00;99.90;;;;;;5032888;28;20067;-68
2022/09/14 03:24:54;;;;;;;1.10;1.00;;;16.90;99.90;;;;;;5032899;28;20104;-68
2022/09/14 03:27:20;;;;;;;1.15;1.02;;;16.90;99.90;;;;;;5032933;28;20033;-68
2022/09/14 03:29:47;;;;;;;2.05;1.00;;;16.90;99.90;;;;;;5033012;28;20026;-68
2022/09/14 03:32:12;;;;;;;1.08;0.90;;;16.90;99.90;;;;;;5032598;28;20376;-68
2022/09/14 03:34:38;;;;;;;2.40;1.20;;;16.80;99.90;;;;;;5035432;28;20026;-68
2022/09/14 03:37:04;;;;;;;1.38;1.20;;;16.80;99.90;;;;;;5036705;28;20551;-68
2022/09/14 03:39:29;;;;;;;1.45;1.20;;;16.70;99.90;;;;;;5036589;28;20464;-68
2022/09/14 03:41:55;;;;;;;1.50;1.20;;;16.70;99.90;;;;;;5036450;28;20076;-69
2022/09/14 03:44:21;;;;;;;1.95;1.25;;;16.70;99.90;;;;;;5036422;28;20053;-68
2022/09/14 03:46:46;;;;;;;1.20;1.10;;;16.70;99.90;;;;;;5036251;28;20036;-68
2022/09/14 03:49:12;;;;;;;2.10;1.15;;;16.70;99.90;;;;;;5036378;28;20024;-68
2022/09/14 03:51:38;;;;;;;2.10;1.10;;;16.70;99.90;;;;;;5036279;28;20028;-68
2022/09/14 03:54:03;;;;;;;1.65;1.20;;;16.70;99.90;;;;;;5036258;28;20026;-68
2022/09/14 03:56:29;;;;;;;1.15;1.02;;;16.60;99.90;;;;;;5036029;28;20077;-69
2022/09/14 03:58:55;;;;;;;1.55;1.00;;;16.60;99.90;;;;;;5036691;28;20026;-69
2022/09/14 04:01:22;;;;;;;1.70;1.20;;;16.60;99.90;;;;;;5035918;28;20091;-69
2022/09/14 04:03:48;;;;;;;1.20;1.10;;;16.60;99.90;;;;;;5036080;28;20025;-69
2022/09/14 04:06:16;;;;;;;1.30;0.90;;;16.60;99.90;;;;;;5036089;28;20045;-68
2022/09/14 04:08:42;;;;;;;1.17;1.05;;;16.60;99.90;;;;;;5036120;28;20376;-68
2022/09/14 04:11:11;;;;;;;1.35;1.25;;;16.60;99.90;;;;;;5035906;28;20384;-69
2022/09/14 04:13:37;;;;;;;2.17;1.00;;;16.60;99.90;;;;;;5035917;28;20100;-69
2022/09/14 04:16:03;;;;;;;2.30;1.00;;;16.50;99.90;;;;;;5035746;28;20152;-68
2022/09/14 04:18:29;;;;;;;1.48;1.00;;;16.60;99.90;;;;;;5035709;28;20053;-68
2022/09/14 04:21:00;;;;;;;0.90;0.90;;;16.60;99.90;;;;;;5035805;28;20045;-68
2022/09/14 04:23:25;;;;;;;1.13;0.90;;;16.60;99.90;;;;;;5035794;28;20025;-69
2022/09/14 04:25:51;;;;;;;2.22;1.10;;;16.60;99.90;;;;;;5035683;28;20500;-68
2022/09/14 04:28:17;;;;;;;0.80;0.80;;;16.60;99.90;;;;;;5035651;28;20032;-68
2022/09/14 04:30:43;;;;;;;1.10;1.00;;;16.70;99.90;;;;;;5035457;28;20033;-68
2022/09/14 04:33:09;;;;;;;1.00;0.90;;;16.70;99.90;;;;;;5035586;28;20537;-69
2022/09/14 04:35:36;;;;;;;1.88;1.00;;;16.70;99.90;;;;;;5035533;28;20021;-69
2022/09/14 04:38:02;;;;;;;1.20;1.00;;;16.60;99.90;;;;;;5035614;28;20028;-68
2022/09/14 04:40:28;;;;;;;1.92;1.20;;;16.60;99.90;;;;;;5035280;28;20028;-69
2022/09/14 04:42:54;;;;;;;1.30;1.20;;;16.60;99.90;;;;;;5035277;28;20029;-68
2022/09/14 04:45:20;;;;;;;1.20;1.10;;;16.50;99.90;;;;;;5034098;28;20029;-69
2022/09/14 04:47:45;;;;;;;2.40;1.27;;;16.50;99.90;;;;;;5035208;28;20018;-68
2022/09/14 04:50:11;;;;;;;1.75;1.30;;;16.50;99.90;;;;;;5035161;28;20032;-69
2022/09/14 04:52:37;;;;;;;2.53;1.20;;;16.50;99.90;;;;;;5017676;28;20030;-68
2022/09/14 04:55:02;;;;;;;2.53;1.52;;;16.50;99.90;;;;;;5035044;28;20529;-68
2022/09/14 04:57:28;;;;;;;1.30;1.20;;;16.50;99.90;;;;;;5033883;28;20519;-68
2022/09/14 04:59:54;;;;;;;1.33;1.23;;;16.50;99.90;;;;;;5034761;28;20472;-68
2022/09/14 05:02:19;;;;;;;1.50;1.40;;;16.50;99.90;;;;;;5031380;28;20380;-68
2022/09/14 05:04:45;;;;;;;0.90;0.90;;;16.50;99.90;;;;;;5034534;28;20037;-68
2022/09/14 05:07:11;;;;;;;1.20;1.10;;;16.60;99.90;;;;;;5034273;28;20075;-68
2022/09/14 05:09:36;;;;;;;1.23;0.95;;;16.70;99.90;;;;;;5030142;28;20451;-67
2022/09/14 05:12:02;;;;;;;1.33;1.23;;;16.70;99.90;;;;;;5021688;28;20124;-68
2022/09/14 05:14:28;;;;;;;1.65;1.10;;;16.80;99.90;;;;;;5019315;28;20017;-68
2022/09/14 05:16:55;;;;;;;1.10;1.00;;;16.80;99.90;;;;;;5021396;28;20065;-68
2022/09/14 05:19:20;;;;;;;0.77;0.77;;;16.80;99.90;;;;;;5018175;28;20041;-68
2022/09/14 05:21:46;;;;;;;2.05;1.02;;;16.80;99.90;;;;;;5032611;28;20392;-68
2022/09/14 05:24:15;;;;;;;1.80;1.55;;;16.90;99.90;;;;;;5032896;28;20022;-68
2022/09/14 05:26:42;;;;;;;2.63;1.80;;;16.80;99.90;;;;;;5033011;28;20092;-68
2022/09/14 05:29:16;;;;;;;1.48;1.13;;;16.70;99.90;;;;;;5032803;28;20427;-69
2022/09/14 05:31:42;;;;;;;1.10;1.00;;;16.70;99.90;;;;;;5033967;28;20105;-68
2022/09/14 05:34:09;;;;;;;1.98;0.95;;;16.80;99.90;;;;;;5016521;28;20120;-69
2022/09/14 05:36:36;;;;;;;1.60;1.13;;;16.90;99.90;;;;;;5013783;28;20368;-69
2022/09/14 05:39:02;;;;;;;1.40;1.30;;;16.90;99.90;;;;;;5033967;28;20017;-69
2022/09/14 05:41:28;;;;;;;1.45;1.35;;;16.90;99.90;;;;;;5032134;28;20491;-69
2022/09/14 05:43:53;;;;;;;1.90;1.60;;;17.00;99.90;;;;;;5025855;28;20076;-68
2022/09/14 05:46:19;;;;;;;3.35;2.20;;;17.00;99.90;;;;;;5033585;28;20043;-68
2022/09/14 05:48:46;;;;;;;2.47;2.08;;;16.90;99.90;;;;;;5014007;28;20112;-68
2022/09/14 05:51:14;;;;;;;3.08;2.63;;;16.80;99.90;;;;;;5013363;28;20101;-69
2022/09/14 05:53:40;;;;;;;2.65;1.95;;;16.80;99.90;;;;;;5012019;28;20029;-69
2022/09/14 05:56:12;;;;;;;3.80;3.50;;;16.90;99.90;;;;;;5030791;28;20373;-68
2022/09/14 05:58:39;;;;;;;3.55;3.35;;;18.50;99.90;;;;;;5032141;28;20472;-69
2022/09/14 06:01:18;;;;;;;2.50;2.30;;;21.70;99.90;;;;;;5013961;28;20140;-69
2022/09/14 06:03:45;;;;;;;2.97;1.80;;;24.10;96.40;;;;;;5022864;28;20084;-68
2022/09/14 06:06:13;;;;;;;1.92;1.80;;;26.30;87.70;;;;;;5020169;28;20017;-68
2022/09/14 06:08:39;;;;;;;1.85;1.75;;;27.80;76.40;;;;;;5009678;28;20148;-68
2022/09/14 06:11:16;;;;;;;1.90;1.60;;;28.80;68.00;;;;;;5029819;28;20029;-68
2022/09/14 06:13:43;;;;;;;2.55;1.60;;;29.20;65.40;;;;;;5025606;28;20109;-68
2022/09/14 06:16:12;;;;;;;2.22;1.73;;;29.90;62.00;;;;;;5019991;28;20061;-69
2022/09/14 06:18:39;;;;;;;3.13;1.77;;;30.20;59.40;;;;;;5027531;28;20087;-69
2022/09/14 06:21:06;;;;;;;2.75;1.73;;;30.40;58.10;;;;;;5025366;28;20045;-69
2022/09/14 06:23:34;;;;;;;2.10;1.40;;;30.50;57.50;;;;;;5017201;28;20494;-69
2022/09/14 06:26:01;;;;;;;1.92;1.45;;;30.70;56.90;;;;;;5023431;28;20096;-69
2022/09/14 06:28:28;;;;;;;1.77;1.60;;;30.90;56.10;;;;;;5021338;28;20036;-69
2022/09/14 06:30:54;;;;;;;4.20;3.88;;;30.70;55.30;;;;;;5029460;28;20030;-69
2022/09/14 06:33:20;;;;;;;2.60;1.63;;;30.70;55.50;;;;;;5030229;28;20052;-69
2022/09/14 06:35:57;;;;;;;1.50;1.40;;;30.70;54.90;;;;;;5025824;28;20488;-69
2022/09/14 06:38:24;;;;;;;1.40;1.30;;;30.70;55.70;;;;;;5010919;28;20395;-69
2022/09/14 06:40:58;;;;;;;2.10;1.55;;;30.90;54.80;;;;;;5030072;28;20052;-70
2022/09/14 06:43:29;;;;;;;1.45;1.35;;;31.10;54.40;;;;;;5031004;28;20093;-70
2022/09/14 06:46:00;;;;;;;1.58;1.20;;;31.00;54.50;;;;;;5025306;28;20369;-69
2022/09/14 06:48:32;;;;;;;1.40;1.30;;;30.70;54.20;;;;;;5029251;28;20080;-69
2022/09/14 06:50:57;;;;;;;1.25;1.15;;;30.30;55.40;;;;;;5004175;28;20438;-69
2022/09/14 06:53:23;;;;;;;1.98;1.65;;;30.00;54.80;;;;;;5026087;28;20108;-69
2022/09/14 06:55:49;;;;;;;1.95;1.20;;;30.00;55.90;;;;;;5028737;28;20037;-67
2022/09/14 06:58:15;;;;;;;1.17;1.00;;;31.00;56.00;;;;;;5008714;28;20380;-64
2022/09/14 07:00:41;;;;;;;1.25;1.00;;;32.30;54.60;;;;;;5025494;28;20068;-65
2022/09/14 07:03:07;;;;;;;1.10;1.00;;;33.40;53.70;;;;;;5019588;28;20379;-66
2022/09/14 07:05:33;;;;;;;1.20;1.10;;;34.40;52.60;;;;;;5022849;28;20082;-65
2022/09/14 07:07:59;;;;;;;1.52;1.42;;;35.20;49.50;;;;;;5003236;28;20026;-65
2022/09/14 07:10:27;;;;;;;1.80;1.40;;;35.50;49.60;;;;;;5019545;28;20387;-65
2022/09/14 07:12:57;;;;;;;1.33;1.23;;;36.00;49.20;;;;;;5029979;28;20125;-64
2022/09/14 07:15:23;;;;;;;1.55;1.15;;;36.70;47.60;;;;;;5013249;28;20029;-66
2022/09/14 07:17:49;;;;;;;1.40;1.27;;;37.30;46.30;;;;;;5032554;28;20028;-67
2022/09/14 07:20:15;;;;;;;1.45;1.10;;;37.80;45.60;;;;;;5032871;28;20472;-68
2022/09/14 07:22:41;;;;;;;0.98;0.98;;;37.90;45.00;;;;;;5033838;28;20341;-66
2022/09/14 07:25:08;;;;;;;0.90;0.90;;;38.30;44.50;;;;;;5030918;28;20034;-66
2022/09/14 07:27:34;;;;;;;0.70;0.70;;;38.80;42.90;;;;;;5029838;28;20018;-64
2022/09/14 07:30:00;;;;;;;1.00;0.90;;;39.10;43.20;;;;;;5012937;28;20079;-66
2022/09/14 07:32:26;;;;;;;0.90;0.90;;;38.70;41.80;;;;;;5032383;28;20033;-67
2022/09/14 07:34:52;;;;;;;1.70;0.80;;;38.60;41.60;;;;;;5034251;28;20025;-68
2022/09/14 07:37:17;;;;;;;0.77;0.77;;;38.40;41.60;;;;;;5029560;28;20492;-65
2022/09/14 07:39:44;;;;;;;1.10;1.00;;;38.50;41.70;;;;;;5034732;28;20515;-66
2022/09/14 07:42:09;;;;;;;1.10;0.80;;;38.50;41.70;;;;;;5015411;28;20029;-66
2022/09/14 07:44:35;;;;;;;0.73;0.70;;;39.20;41.60;;;;;;5035637;28;20514;-64
2022/09/14 07:47:01;;;;;;;0.80;0.70;;;39.70;40.30;;;;;;5033317;28;20041;-65
2022/09/14 07:49:26;;;;;;;0.70;0.70;;;40.10;40.10;;;;;;5032648;28;20029;-68
2022/09/14 07:51:52;;;;;;;2.10;0.90;;;40.70;39.90;;;;;;5024610;28;20044;-67
2022/09/14 07:54:18;;;;;;;0.85;0.82;;;41.20;39.10;;;;;;5027832;28;20511;-65
2022/09/14 07:56:44;;;;;;;0.70;0.70;;;41.60;39.50;;;;;;5044367;28;20514;-67
2022/09/14 07:59:12;;;;;;;0.80;0.80;;;41.70;38.30;;;;;;5048610;28;20017;-67
2022/09/14 08:01:38;;;;;;;0.65;0.63;;;41.90;39.00;;;;;;5036504;28;20039;-66
2022/09/14 08:04:05;;;;;;;0.70;0.70;;;41.70;36.90;;;;;;5029566;28;20433;-66
2022/09/14 08:06:31;;;;;;;1.10;0.75;;;41.60;36.00;;;;;;5027409;28;20067;-65
2022/09/14 08:08:57;;;;;;;0.80;0.80;;;41.60;36.10;;;;;;5027874;28;20472;-70
2022/09/14 08:11:26;;;;;;;1.48;0.75;;;41.70;36.80;;;;;;5049231;28;20021;-67
2022/09/14 08:13:55;;;;;;;1.02;0.70;;;41.80;36.00;;;;;;5052094;28;20387;-66
2022/09/14 08:16:23;;;;;;;0.60;0.60;;;40.70;35.60;;;;;;5005035;28;20029;-69
2022/09/14 08:18:53;;;;;;;0.60;0.60;;;39.90;35.90;;;;;;5025780;28;20033;-67
2022/09/14 08:21:20;;;;;;;0.57;0.57;;;38.70;35.70;;;;;;5031921;28;20073;-66
2022/09/14 08:23:46;;;;;;;0.65;0.65;;;38.90;37.80;;;;;;5015572;28;20040;-66
2022/09/14 08:26:14;;;;;;;1.55;0.80;;;39.00;35.90;;;;;;5034190;28;20022;-67
2022/09/14 08:28:40;;;;;;;0.73;0.70;;;39.40;36.80;;;;;;5030593;28;20037;-67
2022/09/14 08:31:12;;;;;;;0.80;0.80;;;39.90;36.50;;;;;;5035270;28;20371;-69
2022/09/14 08:33:41;;;;;;;0.60;0.60;;;40.20;36.20;;;;;;5041619;28;20112;-73
2022/09/14 08:36:08;;;;;;;0.65;0.52;;;40.00;35.70;;;;;;5026641;28;20309;-67
2022/09/14 08:38:34;;;;;;;0.70;0.70;;;39.80;37.30;;;;;;5023207;28;20137;-69
2022/09/14 08:41:17;;;;;;;0.73;0.70;;;39.90;36.90;;;;;;5015755;28;20048;-66
2022/09/14 08:43:43;;;;;;;0.85;0.80;;;40.00;36.20;;;;;;5026787;28;20044;-70
2022/09/14 08:46:28;;;;;;;0.68;0.68;;;39.50;35.20;;;;;;5011925;28;20484;-70
2022/09/14 08:48:55;;;;;;;1.35;1.13;;;39.20;35.20;;;;;;5000637;28;20037;-70
2022/09/14 08:51:21;;;;;;;2.33;1.30;;;38.20;37.40;;;;;;5031545;28;20021;-69
2022/09/14 08:54:07;;;;;;;0.73;0.73;;;37.80;38.40;;;;;;5026665;28;20029;-69
2022/09/14 08:56:35;;;;;;;1.25;0.90;;;37.40;38.50;;;;;;5012145;28;20064;-67
2022/09/14 08:59:32;;;;;;;1.10;1.00;;;37.60;39.40;;;;;;5032292;28;20392;-68
2022/09/14 09:02:00;;;;;;;1.25;0.90;;;37.30;38.20;;;;;;5026638;28;20033;-67
2022/09/14 09:04:41;;;;;;;0.93;0.93;;;37.20;39.20;;;;;;5025276;28;20037;-67
2022/09/14 09:07:12;;;;;;;1.20;1.10;;;37.00;40.00;;;;;;5030097;28;20444;-69
2022/09/14 09:09:45;;;;;;;2.50;1.20;;;36.70;39.90;;;;;;5031536;28;20040;-69
2022/09/14 09:12:20;;;;;;;1.00;0.80;;;36.60;39.90;;;;;;5030963;28;20014;-67
2022/09/14 09:14:54;;;;;;;0.93;0.93;;;36.20;40.10;;;;;;5023660;28;20029;-70
2022/09/14 09:17:33;;;;;;;0.98;0.95;;;36.10;40.90;;;;;;5030023;28;20496;-69
2022/09/14 09:20:07;;;;;;;1.13;1.02;;;36.00;40.20;;;;;;5028753;28;20022;-67
2022/09/14 09:22:46;;;;;;;1.17;1.08;;;36.00;40.90;;;;;;5027697;28;20048;-69
2022/09/14 09:25:40;;;;;;;1.05;0.90;;;36.00;40.90;;;;;;5027447;28;20029;-67
2022/09/14 09:28:10;;;;;;;1.13;1.00;;;36.00;39.60;;;;;;5019348;28;20204;-68
2022/09/14 09:30:38;;;;;;;1.50;1.10;;;36.10;40.40;;;;;;5030833;28;20087;-66
2022/09/14 09:33:04;;;;;;;1.20;1.10;;;36.00;39.60;;;;;;5023527;28;20048;-67
2022/09/14 09:35:32;;;;;;;0.90;0.90;;;35.70;40.50;;;;;;5024158;28;20022;-70
2022/09/14 09:37:58;;;;;;;1.98;1.20;;;35.60;40.70;;;;;;5024325;28;20045;-68
2022/09/14 09:40:35;;;;;;;1.48;1.27;;;35.60;40.40;;;;;;5022112;28;20161;-70
2022/09/14 09:43:09;;;;;;;1.00;0.90;;;35.70;41.40;;;;;;5020025;28;20124;-66
2022/09/14 09:46:05;;;;;;;1.00;0.93;;;35.70;40.20;;;;;;5028486;28;20126;-70
2022/09/14 09:48:37;;;;;;;0.90;0.90;;;35.90;40.20;;;;;;5012301;28;20099;-68
2022/09/14 09:51:10;;;;;;;1.33;1.23;;;36.10;42.30;;;;;;5020049;28;20038;-69
2022/09/14 09:53:46;;;;;;;1.50;1.40;;;36.10;41.50;;;;;;5013202;28;20061;-69
2022/09/14 09:56:46;;;;;;;1.30;1.20;;;36.00;40.50;;;;;;5019888;28;20106;-68
2022/09/14 09:59:34;;;;;;;1.67;1.20;;;36.10;40.80;;;;;;4981951;28;20100;-68
2022/09/14 10:02:24;;;;;;;1.75;1.35;;;36.20;42.80;;;;;;5008753;28;20045;-70
2022/09/14 10:05:13;;;;;;;1.63;1.20;;;36.20;43.30;;;;;;5023641;28;20072;-65
2022/09/14 10:07:41;;;;;;;1.30;1.20;;;36.10;40.20;;;;;;5026571;28;20053;-72
2022/09/14 10:10:11;;;;;;;1.77;1.20;;;36.10;41.80;;;;;;5027223;28;20034;-71
2022/09/14 10:12:44;;;;;;;1.30;1.20;;;36.10;40.70;;;;;;5031286;28;20021;-69
2022/09/14 10:15:28;;;;;;;1.00;0.90;;;35.90;39.50;;;;;;5014342;28;20360;-69
2022/09/14 10:17:55;;;;;;;0.93;0.93;;;35.80;39.80;;;;;;5030179;28;20025;-69
2022/09/14 10:20:23;;;;;;;0.93;0.90;;;35.70;41.20;;;;;;5013182;28;20399;-70
2022/09/14 10:22:50;;;;;;;0.90;0.90;;;35.80;38.80;;;;;;5032202;28;20048;-74
2022/09/14 10:25:16;;;;;;;1.73;0.93;;;36.00;40.40;;;;;;5032007;28;20048;-73
2022/09/14 10:27:55;;;;;;;1.60;0.98;;;36.50;39.00;;;;;;5009882;28;20032;-71
2022/09/14 10:30:42;;;;;;;0.80;0.68;;;36.90;39.60;;;;;;5030429;28;20104;-68
2022/09/14 10:33:12;;;;;;;1.63;0.77;;;37.10;40.00;;;;;;5023096;28;20341;-71
2022/09/14 10:36:07;;;;;;;1.23;0.90;;;37.40;41.00;;;;;;5028929;28;20022;-71
2022/09/14 10:38:57;;;;;;;1.38;1.13;;;37.10;41.40;;;;;;5009902;28;20485;-69
2022/09/14 10:41:33;;;;;;;1.00;0.95;;;36.80;41.30;;;;;;5018068;28;20046;-67
2022/09/14 10:44:04;;;;;;;1.10;1.00;;;36.70;41.60;;;;;;5030843;28;20029;-72
2022/09/14 10:46:47;;;;;;;1.50;0.90;;;36.60;41.00;;;;;;5015524;28;20026;-68
2022/09/14 10:49:40;;;;;;;0.75;0.75;;;36.20;40.00;;;;;;5025973;28;20033;-69
2022/09/14 10:52:30;;;;;;;0.88;0.70;;;36.10;38.80;;;;;;5022955;28;20061;-69
2022/09/14 10:55:15;;;;;;;0.82;0.80;;;36.10;40.80;;;;;;5024014;28;20492;-68
2022/09/14 10:57:47;;;;;;;3.13;0.70;;;36.20;39.60;;;;;;4999574;28;20069;-70
2022/09/14 11:00:17;;;;;;;1.00;0.65;;;36.40;38.70;;;;;;5007479;28;20029;-72
2022/09/14 11:02:46;;;;;;;1.80;0.65;;;36.60;38.30;;;;;;4991539;28;20117;-74
2022/09/14 11:05:21;;;;;;;0.88;0.73;;;36.80;38.20;;;;;;4986240;28;20023;-68
2022/09/14 11:08:22;;;;;;;1.60;0.80;;;37.00;38.50;;;;;;4988511;28;20207;-68
2022/09/14 11:11:15;;;;;;;1.65;0.80;;;37.10;38.70;;;;;;5006273;28;20029;-67
2022/09/14 11:13:49;;;;;;;0.80;0.75;;;37.20;38.90;;;;;;5009482;28;20140;-69
2022/09/14 11:16:38;;;;;;;1.33;0.60;;;37.40;38.60;;;;;;5010925;28;20033;-66
2022/09/14 11:19:16;;;;;;;2.00;0.80;;;37.30;38.00;;;;;;5007762;28;20060;-69
2022/09/14 11:22:11;;;;;;;1.05;0.95;;;37.30;39.70;;;;;;5003031;28;20512;-70
2022/09/14 11:25:10;;;;;;;4.45;1.27;;;37.00;40.70;;;;;;5003233;28;20065;-69
2022/09/14 11:27:41;;;;;;;3.00;1.00;;;37.00;39.50;;;;;;5009325;28;20051;-67
2022/09/14 11:30:27;;;;;;;1.67;0.80;;;37.00;39.90;;;;;;5007613;28;20042;-69
2022/09/14 11:33:00;;;;;;;1.30;0.80;;;37.10;40.10;;;;;;5004727;28;20025;-72
2022/09/14 11:35:42;;;;;;;1.98;0.70;;;36.90;39.80;;;;;;5007159;28;20026;-69
2022/09/14 11:38:25;;;;;;;0.80;0.75;;;37.10;39.30;;;;;;5008832;28;20536;-72
2022/09/14 11:41:12;;;;;;;1.08;0.60;;;37.20;39.20;;;;;;5006159;28;20033;-68
2022/09/14 11:43:45;;;;;;;0.80;0.70;;;36.90;38.80;;;;;;5006869;28;20072;-70
2022/09/14 11:46:16;;;;;;;1.15;0.90;;;36.50;40.00;;;;;;5007095;28;20037;-70
2022/09/14 11:49:10;;;;;;;1.27;0.90;;;36.20;40.70;;;;;;5006623;28;20030;-67
2022/09/14 11:51:49;;;;;;;2.00;0.80;;;36.00;40.00;;;;;;5005807;28;20022;-68
2022/09/14 11:54:20;;;;;;;0.70;0.65;;;36.00;41.50;;;;;;5002669;28;20033;-69
2022/09/14 11:56:55;;;;;;;2.97;1.00;;;36.10;40.70;;;;;;5025652;28;20480;-69
2022/09/14 11:59:57;;;;;;;2.47;1.10;;;36.20;40.70;;;;;;5028970;28;20132;-70
2022/09/14 12:02:26;;;;;;;1.83;1.05;;;36.50;39.90;;;;;;5013553;28;20034;-69
2022/09/14 12:05:07;;;;;;;1.50;1.02;;;36.60;40.50;;;;;;5012061;28;20077;-68
2022/09/14 12:07:38;;;;;;;3.22;1.30;;;37.00;43.60;;;;;;5032019;28;20419;-68
2022/09/14 12:10:13;;;;;;;3.55;1.05;;;36.90;42.00;;;;;;5013651;28;20033;-70
2022/09/14 12:12:43;;;;;;;2.50;1.40;;;36.60;40.40;;;;;;5016774;28;20464;-69
2022/09/14 12:15:20;;;;;;;2.88;1.30;;;36.70;39.80;;;;;;5009072;28;20105;-70
2022/09/14 12:17:46;;;;;;;2.83;1.25;;;36.90;38.60;;;;;;5008426;28;20026;-70
2022/09/14 12:20:40;;;;;;;2.08;1.30;;;36.80;43.00;;;;;;5027307;28;20321;-69
2022/09/14 12:23:40;;;;;;;2.13;1.13;;;36.70;40.10;;;;;;5028963;28;20029;-70
2022/09/14 12:26:09;;;;;;;2.97;1.25;;;36.40;41.60;;;;;;5025006;28;20391;-69
2022/09/14 12:28:35;;;;;;;1.73;1.10;;;35.80;41.10;;;;;;5027401;28;20036;-67
2022/09/14 12:31:03;;;;;;;2.55;1.17;;;36.00;41.30;;;;;;5027947;28;20026;-70
2022/09/14 12:33:31;;;;;;;1.42;0.95;;;36.00;39.30;;;;;;5031020;28;20035;-70
2022/09/14 12:35:57;;;;;;;2.88;1.40;;;36.10;40.80;;;;;;5032022;28;20048;-70
2022/09/14 12:38:31;;;;;;;2.70;1.10;;;36.10;40.70;;;;;;5032699;28;20021;-68
2022/09/14 12:41:09;;;;;;;2.17;0.80;;;36.30;39.80;;;;;;5027857;28;20091;-71
2022/09/14 12:43:34;;;;;;;2.53;0.90;;;36.50;39.80;;;;;;5027369;28;20460;-68
2022/09/14 12:46:19;;;;;;;2.15;1.13;;;36.70;39.20;;;;;;5033396;28;20033;-69
2022/09/14 12:48:47;;;;;;;1.95;1.10;;;36.80;39.90;;;;;;5021546;28;20423;-68
2022/09/14 12:51:31;;;;;;;2.63;1.10;;;37.00;39.40;;;;;;5022129;28;20034;-68
2022/09/14 12:53:57;;;;;;;1.27;0.77;;;37.00;38.60;;;;;;5023441;28;20116;-68
2022/09/14 12:56:48;;;;;;;2.70;1.00;;;36.50;41.40;;;;;;5022404;28;20128;-67
2022/09/14 12:59:22;;;;;;;1.15;0.80;;;36.40;41.30;;;;;;5023180;28;20026;-68
2022/09/14 13:02:15;;;;;;;2.25;0.82;;;36.40;40.50;;;;;;5034061;28;20048;-68
2022/09/14 13:04:44;;;;;;;1.00;0.77;;;36.20;38.70;;;;;;5033418;28;20552;-69
2022/09/14 13:07:15;;;;;;;1.10;0.63;;;36.30;39.30;;;;;;5032454;28;20026;-68
2022/09/14 13:09:50;;;;;;;1.13;0.88;;;36.40;39.30;;;;;;5013860;28;20021;-67
2022/09/14 13:12:41;;;;;;;1.83;0.90;;;36.40;39.40;;;;;;5014431;28;20306;-67
2022/09/14 13:15:20;;;;;;;2.42;0.73;;;36.30;39.60;;;;;;5014780;28;20026;-69